Time;durP1;ratioP1;P1;durP2;ratioP2;P2;SDS_P1;SDS_P2;PMS_P1;PMS_P2;Temp;Humidity;BMP_temperature;BMP_pressure;BME280_temperature;BME280_humidity;BME280_pressure;Samples;Min_cycle;Max_cycle;Signal;HPM_P1;HPM_P2
2022/12/31 00:02:16;;;;;;;42.20;26.95;;;21.30;61.30;;;;;;5091864;28;20035;-68
2022/12/31 00:04:42;;;;;;;49.95;27.27;;;21.20;60.90;;;;;;5089146;28;20079;-69
2022/12/31 00:07:07;;;;;;;46.90;26.52;;;21.30;61.10;;;;;;5091770;28;20043;-69
2022/12/31 00:09:33;;;;;;;43.10;26.33;;;21.20;61.00;;;;;;5078955;28;20048;-69
2022/12/31 00:11:59;;;;;;;41.97;24.58;;;21.30;61.20;;;;;;5071166;28;20052;-68
2022/12/31 00:14:25;;;;;;;41.78;26.10;;;21.20;61.00;;;;;;5070738;28;20074;-68
2022/12/31 00:16:51;;;;;;;42.78;26.35;;;21.10;61.00;;;;;;5070573;28;20032;-69
2022/12/31 00:19:17;;;;;;;42.42;26.23;;;21.10;61.00;;;;;;5071381;28;20028;-68
2022/12/31 00:21:43;;;;;;;46.72;27.42;;;21.00;61.10;;;;;;5071387;28;20035;-69
2022/12/31 00:24:10;;;;;;;42.92;27.15;;;21.00;61.00;;;;;;5067321;28;20388;-70
2022/12/31 00:26:36;;;;;;;45.13;28.30;;;21.20;60.90;;;;;;5071012;28;20035;-68
2022/12/31 00:29:03;;;;;;;49.47;27.70;;;20.90;60.90;;;;;;5071251;28;20736;-69
2022/12/31 00:31:35;;;;;;;43.95;28.58;;;21.10;60.90;;;;;;5070804;28;20032;-69
2022/12/31 00:34:02;;;;;;;45.17;27.13;;;21.10;60.90;;;;;;5070762;28;20055;-69
2022/12/31 00:36:36;;;;;;;47.28;28.05;;;21.00;60.60;;;;;;5070923;28;20040;-68
2022/12/31 00:39:04;;;;;;;45.45;28.08;;;21.00;60.60;;;;;;5070742;28;20033;-68
2022/12/31 00:41:31;;;;;;;49.63;28.58;;;21.10;60.60;;;;;;5070721;28;20035;-68
2022/12/31 00:43:58;;;;;;;37.92;25.90;;;21.10;60.50;;;;;;5071422;28;20032;-68
2022/12/31 00:46:24;;;;;;;41.30;25.90;;;21.10;60.30;;;;;;5072782;28;20469;-68
2022/12/31 00:48:50;;;;;;;43.95;27.52;;;21.00;60.20;;;;;;5070989;28;20025;-67
2022/12/31 00:51:19;;;;;;;38.70;25.75;;;21.00;60.20;;;;;;5071315;28;20028;-68
2022/12/31 00:53:45;;;;;;;36.17;23.63;;;21.10;60.40;;;;;;5070754;28;20480;-68
2022/12/31 00:56:17;;;;;;;36.88;23.48;;;20.90;60.30;;;;;;5053113;28;20093;-67
2022/12/31 00:58:43;;;;;;;35.03;20.77;;;21.00;60.30;;;;;;5070746;28;20079;-68
2022/12/31 01:01:26;;;;;;;36.45;22.50;;;20.90;60.40;;;;;;5052879;28;20724;-68
2022/12/31 01:03:56;;;;;;;38.60;23.20;;;20.90;60.40;;;;;;5070741;28;20377;-68
2022/12/31 01:06:22;;;;;;;38.47;22.48;;;20.80;60.40;;;;;;5070776;28;20370;-68
2022/12/31 01:08:49;;;;;;;35.45;22.63;;;20.80;60.50;;;;;;5060624;28;20060;-68
2022/12/31 01:11:19;;;;;;;37.78;24.50;;;20.90;60.40;;;;;;5090984;28;20047;-68
2022/12/31 01:13:46;;;;;;;37.55;23.63;;;20.80;60.20;;;;;;5090716;28;20040;-68
2022/12/31 01:16:13;;;;;;;38.45;25.30;;;20.90;60.10;;;;;;5090720;28;20024;-68
2022/12/31 01:18:39;;;;;;;37.72;23.75;;;20.80;60.10;;;;;;5090658;28;20040;-68
2022/12/31 01:21:08;;;;;;;41.58;24.38;;;20.80;60.00;;;;;;5090892;28;20036;-68
2022/12/31 01:23:34;;;;;;;40.13;24.92;;;20.80;60.10;;;;;;5071327;28;20086;-68
2022/12/31 01:26:02;;;;;;;42.13;26.33;;;20.70;60.20;;;;;;5090595;28;20461;-68
2022/12/31 01:28:29;;;;;;;39.28;25.35;;;20.70;60.20;;;;;;5090827;28;20135;-68
2022/12/31 01:30:55;;;;;;;39.30;25.42;;;20.70;60.10;;;;;;5089350;28;20552;-68
2022/12/31 01:33:21;;;;;;;45.13;27.27;;;20.70;60.00;;;;;;5090678;28;20166;-68
2022/12/31 01:35:48;;;;;;;40.90;25.02;;;20.70;59.90;;;;;;5090515;28;20032;-69
2022/12/31 01:38:14;;;;;;;42.25;24.88;;;20.80;59.80;;;;;;5090745;28;20069;-69
2022/12/31 01:40:40;;;;;;;40.00;25.13;;;20.80;59.70;;;;;;5090506;28;20035;-69
2022/12/31 01:43:18;;;;;;;42.30;27.33;;;20.80;59.60;;;;;;5090514;28;20031;-68
2022/12/31 01:45:52;;;;;;;42.10;25.50;;;20.90;59.70;;;;;;5090414;28;20028;-69
2022/12/31 01:48:23;;;;;;;42.00;25.80;;;20.70;59.60;;;;;;5090362;28;20381;-69
2022/12/31 01:50:50;;;;;;;48.47;25.48;;;20.90;59.80;;;;;;5090824;28;20063;-69
2022/12/31 01:53:17;;;;;;;34.58;23.67;;;20.60;59.60;;;;;;5094517;28;20036;-69
2022/12/31 01:55:53;;;;;;;39.72;26.17;;;20.70;59.70;;;;;;5093954;28;20550;-69
2022/12/31 01:58:29;;;;;;;37.90;23.95;;;20.70;59.70;;;;;;5094142;28;20028;-70
2022/12/31 02:00:57;;;;;;;40.40;25.48;;;20.60;59.60;;;;;;5094082;28;20043;-67
2022/12/31 02:03:25;;;;;;;44.08;24.60;;;20.50;59.90;;;;;;5093001;28;20028;-67
2022/12/31 02:05:56;;;;;;;39.67;25.33;;;20.50;59.80;;;;;;5074557;28;20036;-67
2022/12/31 02:08:22;;;;;;;38.58;24.38;;;20.60;59.80;;;;;;5092144;28;20040;-68
2022/12/31 02:10:48;;;;;;;38.63;24.95;;;20.60;59.60;;;;;;5073563;28;20404;-68
2022/12/31 02:13:14;;;;;;;38.97;23.58;;;20.60;59.40;;;;;;5073495;28;20128;-68
2022/12/31 02:16:05;;;;;;;33.92;19.83;;;20.60;59.50;;;;;;5073688;28;20099;-68
2022/12/31 02:19:18;;;;;;;31.90;20.27;;;20.50;59.50;;;;;;5073490;28;20032;-68
2022/12/31 02:21:47;;;;;;;25.65;18.92;;;20.50;59.60;;;;;;5030841;28;20037;-66
2022/12/31 02:24:48;;;;;;;31.92;21.38;;;20.50;59.40;;;;;;5030781;28;20045;-68
2022/12/31 02:27:25;;;;;;;36.25;22.92;;;20.50;59.30;;;;;;5027929;28;20066;-68
2022/12/31 02:30:11;;;;;;;35.67;23.10;;;20.60;59.40;;;;;;5030800;28;20467;-68
2022/12/31 02:32:58;;;;;;;38.38;23.02;;;20.50;59.20;;;;;;5030543;28;20068;-68
2022/12/31 02:35:50;;;;;;;38.00;24.38;;;20.60;59.20;;;;;;5030808;28;20100;-68
2022/12/31 02:38:31;;;;;;;36.47;22.80;;;20.50;59.00;;;;;;4971284;28;20061;-68
2022/12/31 02:40:58;;;;;;;35.80;22.60;;;20.60;58.90;;;;;;4971140;28;20049;-69
2022/12/31 02:43:25;;;;;;;32.08;21.38;;;20.50;58.80;;;;;;4971024;28;20053;-68
2022/12/31 02:46:02;;;;;;;45.75;24.30;;;20.50;58.90;;;;;;4971173;28;20043;-68
2022/12/31 02:48:54;;;;;;;35.65;23.13;;;20.40;58.80;;;;;;4923444;28;20186;-68
2022/12/31 02:51:20;;;;;;;40.63;23.95;;;20.40;58.80;;;;;;4971513;28;20049;-68
2022/12/31 02:54:20;;;;;;;37.47;23.83;;;20.30;58.90;;;;;;4963643;28;20534;-67
2022/12/31 02:56:58;;;;;;;38.30;23.45;;;20.30;58.80;;;;;;4894910;29;20095;-69
2022/12/31 03:02:45;;;;;;;40.85;24.88;;;20.30;58.90;;;;;;4912758;29;20055;-69
2022/12/31 03:05:14;;;;;;;43.38;24.08;;;20.40;58.70;;;;;;4912826;29;20064;-70
2022/12/31 03:07:41;;;;;;;34.83;22.60;;;20.30;58.60;;;;;;4913016;29;20511;-68
2022/12/31 03:10:08;;;;;;;36.50;22.40;;;20.30;58.40;;;;;;4944980;28;20059;-69
2022/12/31 03:12:47;;;;;;;38.60;24.60;;;20.30;58.40;;;;;;4952141;28;20047;-68
2022/12/31 03:15:20;;;;;;;37.20;24.30;;;20.20;58.40;;;;;;4937622;28;20050;-69
2022/12/31 03:18:03;;;;;;;42.40;25.15;;;20.20;58.40;;;;;;4990268;28;20042;-70
2022/12/31 03:23:27;;;;;;;39.75;23.70;;;20.30;58.40;;;;;;4990277;28;20030;-70
2022/12/31 03:25:55;;;;;;;35.40;22.45;;;20.30;58.30;;;;;;4990382;28;20045;-69
2022/12/31 03:28:24;;;;;;;38.85;23.92;;;20.30;58.20;;;;;;4990035;28;20058;-70
2022/12/31 03:30:54;;;;;;;41.42;24.88;;;20.30;58.20;;;;;;4990306;28;20030;-69
2022/12/31 03:33:20;;;;;;;42.47;23.98;;;20.40;58.10;;;;;;5021861;28;20076;-70
2022/12/31 03:35:48;;;;;;;34.00;21.13;;;20.40;57.90;;;;;;5071873;28;20032;-69
2022/12/31 03:38:15;;;;;;;34.03;22.83;;;20.30;58.00;;;;;;5072102;28;20068;-70
2022/12/31 03:40:43;;;;;;;37.58;25.15;;;20.30;58.00;;;;;;5071861;28;20039;-69
2022/12/31 03:43:10;;;;;;;32.05;22.55;;;20.20;57.70;;;;;;5071991;28;20025;-69
2022/12/31 03:45:36;;;;;;;40.78;24.30;;;20.30;57.90;;;;;;5071635;28;20025;-68
2022/12/31 03:48:04;;;;;;;38.35;25.52;;;20.30;58.00;;;;;;5072006;28;20036;-70
2022/12/31 03:50:30;;;;;;;33.72;23.20;;;20.30;58.00;;;;;;5071469;28;20052;-70
2022/12/31 03:52:56;;;;;;;39.55;23.88;;;20.30;58.00;;;;;;5071843;28;20033;-69
2022/12/31 03:55:22;;;;;;;33.88;23.63;;;20.10;57.90;;;;;;5071489;28;20177;-69
2022/12/31 03:57:48;;;;;;;35.95;23.92;;;20.10;58.00;;;;;;5071481;28;20365;-69
2022/12/31 04:00:20;;;;;;;36.95;25.17;;;20.20;57.90;;;;;;5071274;28;20032;-70
2022/12/31 04:02:47;;;;;;;39.28;23.75;;;20.20;57.80;;;;;;5071697;28;20107;-70
2022/12/31 04:05:14;;;;;;;32.92;22.42;;;20.20;57.70;;;;;;5071394;28;20025;-69
2022/12/31 04:07:40;;;;;;;33.88;22.48;;;20.20;57.60;;;;;;5071493;28;20033;-69
2022/12/31 04:10:08;;;;;;;36.42;23.73;;;20.10;57.60;;;;;;5070181;28;20080;-69
2022/12/31 04:12:34;;;;;;;37.22;25.25;;;20.20;57.60;;;;;;5071609;28;20485;-68
2022/12/31 04:15:01;;;;;;;36.97;24.23;;;20.10;57.70;;;;;;5070669;28;20412;-69
2022/12/31 04:17:27;;;;;;;38.53;25.00;;;20.10;57.60;;;;;;5071438;28;20458;-68
2022/12/31 04:19:53;;;;;;;35.95;23.77;;;20.20;57.50;;;;;;5072336;28;20036;-68
2022/12/31 04:22:19;;;;;;;36.95;23.40;;;20.10;57.50;;;;;;5070949;28;20859;-69
2022/12/31 04:24:45;;;;;;;32.90;22.48;;;20.20;57.70;;;;;;5068887;28;20490;-69
2022/12/31 04:27:12;;;;;;;40.05;24.35;;;20.20;57.60;;;;;;5068670;28;20037;-69
2022/12/31 04:29:39;;;;;;;39.08;22.83;;;20.30;57.60;;;;;;5068741;28;20093;-69
2022/12/31 04:32:06;;;;;;;37.22;24.48;;;20.10;57.40;;;;;;5068816;28;20041;-69
2022/12/31 04:34:32;;;;;;;35.95;22.73;;;20.10;57.50;;;;;;5067363;28;20346;-69
2022/12/31 04:36:59;;;;;;;34.60;22.95;;;20.10;57.50;;;;;;5066685;28;20112;-69
2022/12/31 04:39:25;;;;;;;35.15;20.95;;;20.00;57.40;;;;;;5068236;28;20040;-69
2022/12/31 04:41:52;;;;;;;36.13;21.98;;;20.00;57.40;;;;;;5068659;28;20074;-70
2022/12/31 04:44:18;;;;;;;32.80;21.63;;;20.20;57.60;;;;;;5048756;28;20589;-70
2022/12/31 04:46:45;;;;;;;37.50;22.40;;;20.20;57.60;;;;;;5068281;28;20055;-70
2022/12/31 04:49:11;;;;;;;34.38;21.67;;;20.20;57.70;;;;;;5067758;28;20033;-71
2022/12/31 04:51:37;;;;;;;33.97;21.17;;;20.30;57.70;;;;;;5068365;28;20044;-70
2022/12/31 04:54:03;;;;;;;35.15;22.65;;;20.30;57.80;;;;;;5075532;28;20047;-69
2022/12/31 04:56:30;;;;;;;36.85;22.63;;;20.40;57.50;;;;;;5108678;28;20040;-69
2022/12/31 04:58:56;;;;;;;33.33;20.95;;;20.60;57.20;;;;;;5089535;28;20051;-68
2022/12/31 05:01:22;;;;;;;30.63;17.83;;;20.60;59.30;;;;;;5108720;28;20487;-70
2022/12/31 05:03:48;;;;;;;29.42;18.65;;;21.00;59.90;;;;;;5111249;28;20032;-68
2022/12/31 05:06:21;;;;;;;29.17;20.00;;;21.20;58.00;;;;;;5111159;28;20457;-69
2022/12/31 05:08:48;;;;;;;30.67;20.42;;;21.50;58.20;;;;;;5088851;28;20044;-68
2022/12/31 05:11:15;;;;;;;34.85;21.67;;;21.90;60.50;;;;;;5111441;28;20036;-69
2022/12/31 05:13:41;;;;;;;28.48;20.85;;;21.90;56.10;;;;;;5111367;28;20125;-70
2022/12/31 05:16:27;;;;;;;31.67;20.98;;;21.80;54.10;;;;;;5111339;28;20019;-69
2022/12/31 05:18:53;;;;;;;37.22;21.77;;;21.90;55.30;;;;;;5067677;28;20071;-68
2022/12/31 05:21:21;;;;;;;27.80;21.33;;;22.00;51.10;;;;;;5067921;28;20041;-69
2022/12/31 05:23:47;;;;;;;37.70;22.73;;;21.90;48.80;;;;;;5067921;28;20040;-70
2022/12/31 05:26:14;;;;;;;32.95;20.42;;;21.90;48.50;;;;;;5053908;28;20093;-71
2022/12/31 05:28:40;;;;;;;36.00;22.00;;;21.90;48.00;;;;;;5071935;28;20045;-70
2022/12/31 05:31:06;;;;;;;32.42;21.23;;;21.90;47.40;;;;;;5071943;28;20039;-71
2022/12/31 05:33:32;;;;;;;36.03;22.50;;;21.90;46.70;;;;;;5071735;28;20072;-73
2022/12/31 05:35:58;;;;;;;31.95;20.88;;;22.00;46.20;;;;;;5071952;28;20438;-72
2022/12/31 05:38:25;;;;;;;38.03;21.85;;;21.90;46.60;;;;;;5071302;28;20045;-70
2022/12/31 05:41:06;;;;;;;31.98;20.73;;;22.00;46.20;;;;;;5071815;28;20111;-72
2022/12/31 05:43:32;;;;;;;38.53;25.67;;;22.00;45.80;;;;;;5071309;28;20036;-71
2022/12/31 05:46:03;;;;;;;40.55;26.42;;;22.00;46.10;;;;;;5071686;28;20051;-78
2022/12/31 05:48:30;;;;;;;43.10;28.42;;;21.80;46.90;;;;;;5038249;28;20110;-74
2022/12/31 05:50:56;;;;;;;42.22;28.13;;;21.60;47.90;;;;;;5111999;28;20042;-73
2022/12/31 05:53:22;;;;;;;43.13;27.55;;;21.40;48.80;;;;;;5114574;28;20092;-72
2022/12/31 05:55:48;;;;;;;32.42;23.65;;;21.30;49.60;;;;;;5114773;28;20040;-73
2022/12/31 05:58:15;;;;;;;27.88;18.50;;;21.10;50.30;;;;;;5114343;28;20024;-72
2022/12/31 06:00:41;;;;;;;35.05;25.65;;;21.30;48.40;;;;;;5114621;28;20036;-73
2022/12/31 06:03:08;;;;;;;33.92;25.02;;;21.20;46.40;;;;;;5114610;28;20081;-72
2022/12/31 06:05:34;;;;;;;31.10;23.55;;;21.40;47.20;;;;;;5114525;28;20031;-73
2022/12/31 06:08:00;;;;;;;27.67;19.63;;;21.30;47.10;;;;;;5114461;28;20054;-72
2022/12/31 06:10:25;;;;;;;35.55;25.83;;;21.40;48.50;;;;;;5096771;28;20075;-70
2022/12/31 06:12:51;;;;;;;36.47;26.27;;;21.60;50.50;;;;;;5094220;28;20032;-71
2022/12/31 06:15:17;;;;;;;37.00;26.60;;;21.50;48.40;;;;;;5093419;28;20024;-73
2022/12/31 06:17:43;;;;;;;35.35;26.50;;;21.50;49.70;;;;;;5075311;28;20024;-72
2022/12/31 06:20:11;;;;;;;36.58;25.00;;;21.60;49.70;;;;;;5093876;28;20044;-73
2022/12/31 06:22:37;;;;;;;39.28;25.58;;;21.50;50.20;;;;;;5093854;28;20028;-72
2022/12/31 06:25:03;;;;;;;35.08;27.58;;;21.50;48.40;;;;;;5093576;28;20036;-71
2022/12/31 06:27:29;;;;;;;34.80;23.30;;;21.30;50.60;;;;;;5093651;28;20032;-70
2022/12/31 06:29:55;;;;;;;29.80;23.55;;;21.30;48.40;;;;;;5083195;28;20478;-70
2022/12/31 06:32:21;;;;;;;35.53;26.00;;;21.30;48.10;;;;;;5072191;28;20037;-72
2022/12/31 06:34:47;;;;;;;32.83;24.27;;;21.30;49.30;;;;;;5072363;28;20397;-73
2022/12/31 06:37:13;;;;;;;33.47;23.20;;;21.40;48.00;;;;;;5071289;28;20041;-73
2022/12/31 06:39:39;;;;;;;31.77;21.63;;;21.30;46.90;;;;;;5072619;28;20033;-74
2022/12/31 06:42:05;;;;;;;30.52;21.98;;;21.30;45.80;;;;;;5073153;28;20028;-71
2022/12/31 06:44:31;;;;;;;24.05;17.63;;;21.20;45.50;;;;;;5055081;28;20068;-74
2022/12/31 06:46:56;;;;;;;32.33;23.63;;;21.10;44.80;;;;;;5073177;28;20063;-73
2022/12/31 06:49:22;;;;;;;26.75;17.58;;;21.20;44.70;;;;;;5073061;28;20124;-70
2022/12/31 06:51:48;;;;;;;37.78;25.75;;;21.10;43.80;;;;;;5073181;28;20111;-71
2022/12/31 06:54:14;;;;;;;40.92;25.98;;;21.20;57.30;;;;;;5072763;28;20154;-69
2022/12/31 06:56:41;;;;;;;38.83;25.83;;;21.40;62.60;;;;;;5074661;28;20123;-69
2022/12/31 06:59:23;;;;;;;41.97;28.35;;;21.40;61.70;;;;;;5071873;28;20111;-70
2022/12/31 07:02:04;;;;;;;41.92;26.65;;;21.30;58.60;;;;;;5049074;28;20371;-70
2022/12/31 07:05:00;;;;;;;43.70;26.58;;;21.20;61.80;;;;;;5064361;28;20085;-71
2022/12/31 07:07:39;;;;;;;43.22;26.73;;;21.00;61.80;;;;;;5071618;28;20048;-69
2022/12/31 07:10:43;;;;;;;38.80;25.42;;;21.20;64.60;;;;;;5072129;28;20128;-70
2022/12/31 07:13:45;;;;;;;42.67;26.27;;;21.50;64.60;;;;;;5071972;28;20029;-72
2022/12/31 07:16:38;;;;;;;6.13;4.35;;;21.70;66.70;;;;;;4993321;28;20042;-73
2022/12/31 07:19:28;;;;;;;4.50;1.90;;;22.00;69.10;;;;;;5009590;28;20840;-72
2022/12/31 07:21:57;;;;;;;11.93;7.28;;;22.10;64.60;;;;;;4990557;28;20495;-73
2022/12/31 07:24:23;;;;;;;5.50;4.38;;;22.30;62.30;;;;;;5006190;28;20603;-73
2022/12/31 07:26:52;;;;;;;15.02;6.60;;;22.20;59.90;;;;;;5006323;28;20042;-72
2022/12/31 07:29:48;;;;;;;4.75;3.80;;;22.30;58.20;;;;;;4990528;28;20080;-72
2022/12/31 07:32:33;;;;;;;17.27;9.35;;;22.40;54.70;;;;;;4990450;28;20491;-73
2022/12/31 07:35:23;;;;;;;11.23;6.32;;;22.30;53.10;;;;;;5006639;28;20034;-74
2022/12/31 07:38:01;;;;;;;18.77;10.23;;;22.30;52.00;;;;;;4990250;28;20080;-73
2022/12/31 07:40:53;;;;;;;21.42;11.55;;;22.30;52.20;;;;;;5009007;28;20164;-70
2022/12/31 07:43:25;;;;;;;23.30;10.80;;;22.20;52.60;;;;;;5009238;28;20219;-70
2022/12/31 07:46:11;;;;;;;19.95;10.77;;;22.30;52.40;;;;;;5009377;28;20096;-70
2022/12/31 07:48:37;;;;;;;8.73;6.13;;;22.30;52.50;;;;;;5070696;28;20069;-70
2022/12/31 07:51:04;;;;;;;26.88;12.73;;;22.30;52.20;;;;;;5053668;28;20036;-69
2022/12/31 07:53:30;;;;;;;32.83;23.98;;;22.30;51.90;;;;;;5072010;28;20035;-70
2022/12/31 07:55:59;;;;;;;37.35;24.30;;;22.30;45.00;;;;;;5071849;28;20021;-72
2022/12/31 07:58:37;;;;;;;32.70;22.42;;;22.40;43.40;;;;;;5065177;28;20025;-75
2022/12/31 08:01:04;;;;;;;30.83;22.10;;;22.40;41.60;;;;;;5033699;28;20073;-72
2022/12/31 08:04:04;;;;;;;32.92;25.20;;;22.50;43.50;;;;;;5051717;28;20077;-73
2022/12/31 08:06:50;;;;;;;32.65;23.17;;;22.30;41.40;;;;;;5051579;28;20672;-73
2022/12/31 08:09:47;;;;;;;29.38;20.58;;;22.40;44.20;;;;;;5053941;28;20048;-73
2022/12/31 08:12:14;;;;;;;39.00;27.55;;;22.50;45.50;;;;;;5054717;28;20064;-73
2022/12/31 08:14:45;;;;;;;38.88;26.25;;;22.40;43.20;;;;;;5047191;28;20032;-74
2022/12/31 08:17:17;;;;;;;33.88;24.73;;;22.60;46.40;;;;;;5029007;28;20043;-71
2022/12/31 08:19:47;;;;;;;34.90;24.77;;;22.60;45.00;;;;;;5071042;28;20440;-74
2022/12/31 08:22:13;;;;;;;34.75;26.23;;;22.50;45.50;;;;;;5079026;28;20033;-75
2022/12/31 08:24:39;;;;;;;32.78;23.15;;;22.60;41.10;;;;;;5068092;28;20101;-73
2022/12/31 08:27:21;;;;;;;35.72;23.90;;;22.50;41.80;;;;;;5071211;28;20063;-76
2022/12/31 08:30:01;;;;;;;32.97;24.30;;;22.60;41.60;;;;;;5071122;28;20051;-73
2022/12/31 08:32:45;;;;;;;40.97;27.90;;;22.50;46.30;;;;;;5070787;28;20484;-74
2022/12/31 08:35:30;;;;;;;36.78;27.40;;;22.60;47.60;;;;;;5063906;28;20110;-71
2022/12/31 08:38:15;;;;;;;33.42;23.52;;;22.90;49.10;;;;;;5060853;28;20036;-75
2022/12/31 08:41:01;;;;;;;37.13;26.67;;;23.10;54.70;;;;;;5039482;28;20037;-74
2022/12/31 08:43:32;;;;;;;36.25;25.45;;;23.10;45.40;;;;;;5068345;28;20115;-73
2022/12/31 08:45:59;;;;;;;32.90;23.85;;;23.00;46.80;;;;;;5048051;28;20109;-74
2022/12/31 08:48:39;;;;;;;42.03;27.15;;;23.00;47.70;;;;;;5049612;28;20055;-73
2022/12/31 08:51:05;;;;;;;38.03;25.98;;;23.20;49.40;;;;;;5050092;28;20053;-73
2022/12/31 08:53:33;;;;;;;42.22;24.45;;;23.10;56.70;;;;;;5058031;28;20040;-74
2022/12/31 08:56:26;;;;;;;30.77;23.35;;;23.30;52.60;;;;;;5061521;28;20082;-73
2022/12/31 08:58:52;;;;;;;33.55;23.80;;;23.30;62.30;;;;;;4969055;28;20054;-74
2022/12/31 09:01:23;;;;;;;34.55;22.60;;;23.60;57.70;;;;;;4969242;28;20050;-75
2022/12/31 09:04:33;;;;;;;32.58;23.90;;;23.70;64.30;;;;;;4986605;28;20046;-72
2022/12/31 09:07:01;;;;;;;28.27;22.17;;;23.90;58.90;;;;;;4971582;28;20046;-75
2022/12/31 09:09:44;;;;;;;31.90;24.05;;;24.10;54.70;;;;;;4977869;28;20145;-73
2022/12/31 09:12:28;;;;;;;34.05;24.67;;;23.90;53.90;;;;;;4971484;28;20222;-74
2022/12/31 09:15:12;;;;;;;31.08;24.10;;;24.00;57.90;;;;;;4969485;28;20035;-72
2022/12/31 09:17:41;;;;;;;31.75;24.60;;;24.00;58.40;;;;;;4969046;28;20035;-72
2022/12/31 09:20:24;;;;;;;37.75;23.85;;;24.10;55.40;;;;;;4981219;28;20058;-75
2022/12/31 09:22:52;;;;;;;28.23;22.60;;;24.10;58.00;;;;;;4988887;28;20129;-74
2022/12/31 09:25:20;;;;;;;31.63;23.33;;;24.10;51.60;;;;;;4988626;28;20046;-74
2022/12/31 09:28:04;;;;;;;30.85;22.45;;;24.10;55.70;;;;;;4988811;28;20030;-72
2022/12/31 09:30:50;;;;;;;32.67;22.75;;;24.30;57.80;;;;;;4988432;28;20693;-73
2022/12/31 09:33:36;;;;;;;34.53;23.83;;;24.30;55.90;;;;;;4972408;28;20073;-74
2022/12/31 09:36:07;;;;;;;32.65;24.63;;;24.40;60.40;;;;;;4966266;28;20070;-74
2022/12/31 09:39:12;;;;;;;28.98;18.90;;;24.50;59.50;;;;;;4989742;28;20166;-74
2022/12/31 09:42:06;;;;;;;37.67;20.92;;;24.60;59.20;;;;;;5006676;28;20042;-72
2022/12/31 09:44:35;;;;;;;34.33;21.63;;;24.80;66.20;;;;;;5031969;28;20073;-73
2022/12/31 09:47:28;;;;;;;35.15;22.63;;;24.90;54.40;;;;;;5012982;28;20077;-73
2022/12/31 09:49:57;;;;;;;33.97;21.25;;;25.20;57.00;;;;;;5007833;28;20046;-72
2022/12/31 09:52:49;;;;;;;47.60;24.15;;;25.40;65.90;;;;;;5007856;28;20034;-72
2022/12/31 09:55:30;;;;;;;35.63;23.42;;;25.60;63.40;;;;;;5007766;28;20042;-73
2022/12/31 09:58:20;;;;;;;32.55;20.20;;;25.70;54.40;;;;;;5007645;28;20375;-71
2022/12/31 10:01:11;;;;;;;29.85;20.80;;;25.50;46.80;;;;;;5007258;28;20505;-73
2022/12/31 10:04:15;;;;;;;30.23;21.65;;;25.50;50.50;;;;;;4968353;28;20051;-72
2022/12/31 10:07:06;;;;;;;31.60;17.67;;;25.40;52.60;;;;;;4990902;28;20090;-74
2022/12/31 10:09:53;;;;;;;28.20;19.92;;;25.40;48.40;;;;;;4999429;28;20060;-74
2022/12/31 10:12:43;;;;;;;30.55;20.45;;;25.40;54.50;;;;;;4988316;28;20050;-71
2022/12/31 10:15:37;;;;;;;30.13;22.63;;;25.30;48.60;;;;;;4991661;28;20066;-75
2022/12/31 10:18:22;;;;;;;25.95;20.02;;;25.30;50.80;;;;;;5000929;28;20042;-75
2022/12/31 10:21:09;;;;;;;29.73;22.38;;;25.30;51.60;;;;;;5010978;28;20116;-76
2022/12/31 10:23:51;;;;;;;25.95;19.85;;;25.30;48.30;;;;;;5011570;28;20054;-75
2022/12/31 10:26:28;;;;;;;25.05;18.90;;;25.10;46.80;;;;;;5003538;28;20037;-80
2022/12/31 10:29:15;;;;;;;29.52;19.77;;;25.10;42.70;;;;;;5031021;28;20084;-76
2022/12/31 10:31:44;;;;;;;21.48;15.88;;;24.90;41.50;;;;;;5031185;28;20111;-73
2022/12/31 10:34:23;;;;;;;24.65;19.15;;;24.70;40.50;;;;;;5030880;28;20526;-71
2022/12/31 10:36:52;;;;;;;26.55;19.88;;;24.70;40.80;;;;;;5030896;28;20232;-73
2022/12/31 10:39:26;;;;;;;32.15;20.85;;;24.50;42.50;;;;;;5030815;28;20041;-71
2022/12/31 10:42:36;;;;;;;34.17;21.90;;;24.70;56.60;;;;;;4976485;28;20046;-72
2022/12/31 10:45:33;;;;;;;32.08;19.90;;;24.80;58.20;;;;;;5075374;28;20032;-71
2022/12/31 10:48:08;;;;;;;31.80;20.48;;;24.80;58.70;;;;;;5051677;28;20458;-68
2022/12/31 10:50:52;;;;;;;33.65;20.45;;;24.70;57.50;;;;;;5036719;28;20438;-71
2022/12/31 10:53:36;;;;;;;30.55;20.25;;;24.60;57.30;;;;;;5073098;28;20077;-72
2022/12/31 10:56:14;;;;;;;30.13;20.50;;;24.50;57.80;;;;;;5054892;28;20550;-77
2022/12/31 10:58:49;;;;;;;32.40;20.88;;;24.40;58.00;;;;;;5072803;28;20043;-74
2022/12/31 11:01:38;;;;;;;33.10;20.35;;;24.30;58.50;;;;;;5072916;28;20041;-71
2022/12/31 11:04:21;;;;;;;28.58;19.13;;;24.20;58.50;;;;;;5072845;28;20335;-70
2022/12/31 11:06:57;;;;;;;29.70;21.85;;;24.20;59.10;;;;;;5075009;28;20494;-70
2022/12/31 11:10:07;;;;;;;29.23;21.83;;;24.10;54.20;;;;;;5072751;28;20056;-70
2022/12/31 11:12:36;;;;;;;30.73;20.13;;;24.10;45.50;;;;;;5000257;28;20057;-73
2022/12/31 11:15:15;;;;;;;29.00;19.33;;;24.10;52.00;;;;;;5010148;28;20045;-73
2022/12/31 11:17:57;;;;;;;22.75;17.15;;;24.10;47.80;;;;;;4993830;28;20049;-73
2022/12/31 11:20:42;;;;;;;32.57;19.77;;;24.10;43.10;;;;;;5010239;28;20112;-77
2022/12/31 11:23:46;;;;;;;29.58;20.00;;;24.10;54.90;;;;;;5009967;28;20105;-74
2022/12/31 11:26:42;;;;;;;28.52;18.65;;;24.10;57.80;;;;;;5009914;28;20474;-74
2022/12/31 11:29:43;;;;;;;28.40;18.17;;;24.10;58.60;;;;;;4977263;28;20050;-69
2022/12/31 11:32:22;;;;;;;31.58;19.35;;;24.10;58.70;;;;;;4950968;28;20042;-71
2022/12/31 11:35:11;;;;;;;25.42;18.60;;;24.10;59.10;;;;;;4951475;29;20137;-71
2022/12/31 11:37:45;;;;;;;27.23;18.63;;;24.00;59.20;;;;;;4913013;29;20081;-70
2022/12/31 11:40:34;;;;;;;30.05;17.50;;;23.80;59.50;;;;;;4913083;29;20059;-74
2022/12/31 11:43:20;;;;;;;30.73;17.42;;;23.90;59.90;;;;;;4911460;29;20569;-73
2022/12/31 11:45:48;;;;;;;32.65;19.58;;;23.70;59.90;;;;;;4891372;29;20040;-69
2022/12/31 11:48:24;;;;;;;25.77;18.75;;;23.80;60.00;;;;;;4880379;28;20676;-75
2022/12/31 11:51:02;;;;;;;27.85;19.40;;;23.70;60.10;;;;;;4967662;28;20775;-73
2022/12/31 11:54:00;;;;;;;31.30;18.77;;;23.70;60.20;;;;;;4967751;28;20431;-71
2022/12/31 11:56:37;;;;;;;30.45;19.63;;;23.60;60.10;;;;;;4951247;28;20046;-71
2022/12/31 11:59:09;;;;;;;30.23;18.42;;;23.50;60.40;;;;;;4968476;28;20058;-72
2022/12/31 12:01:50;;;;;;;30.38;18.33;;;23.50;60.90;;;;;;4961800;28;20031;-72
2022/12/31 12:04:17;;;;;;;31.25;20.20;;;23.50;60.90;;;;;;4949167;28;20627;-73
2022/12/31 12:06:44;;;;;;;30.48;18.73;;;23.30;61.00;;;;;;4963508;28;20669;-74
2022/12/31 12:09:20;;;;;;;29.15;18.27;;;23.10;61.20;;;;;;4966950;28;20042;-70
2022/12/31 12:12:01;;;;;;;30.02;17.50;;;23.30;61.60;;;;;;4967236;28;20047;-72
2022/12/31 12:14:35;;;;;;;29.40;18.02;;;23.30;62.10;;;;;;5000910;28;20049;-71
2022/12/31 12:17:02;;;;;;;31.45;18.02;;;23.30;61.70;;;;;;5060010;28;20035;-72
2022/12/31 12:19:32;;;;;;;30.17;18.70;;;23.20;61.90;;;;;;5087531;28;20047;-75
2022/12/31 12:22:07;;;;;;;31.88;19.50;;;23.20;62.20;;;;;;5085696;28;20035;-73
2022/12/31 12:24:33;;;;;;;32.63;18.48;;;23.10;62.40;;;;;;5088804;28;20024;-73
2022/12/31 12:26:59;;;;;;;31.73;19.23;;;23.00;62.80;;;;;;5088374;28;20047;-73
2022/12/31 12:29:31;;;;;;;30.02;19.85;;;22.90;63.30;;;;;;5065057;28;20457;-74
2022/12/31 12:32:16;;;;;;;26.73;18.42;;;22.90;64.00;;;;;;5068476;28;20039;-73
2022/12/31 12:34:42;;;;;;;28.35;18.00;;;22.80;64.30;;;;;;5068033;28;20032;-75
2022/12/31 12:37:23;;;;;;;28.08;18.88;;;22.80;64.40;;;;;;5070385;28;20035;-73
2022/12/31 12:40:03;;;;;;;28.25;18.48;;;22.90;64.40;;;;;;5070878;28;20040;-75
2022/12/31 12:42:30;;;;;;;27.50;18.33;;;22.80;64.90;;;;;;5070853;28;20032;-74
2022/12/31 12:45:01;;;;;;;35.28;20.70;;;22.80;64.30;;;;;;5071196;28;20033;-75
2022/12/31 12:47:27;;;;;;;33.55;18.98;;;22.80;63.10;;;;;;5070824;28;20056;-75
2022/12/31 12:49:54;;;;;;;30.00;19.42;;;22.70;63.10;;;;;;5071276;28;20039;-76
2022/12/31 12:53:10;;;;;;;35.03;19.52;;;22.60;62.90;;;;;;5070743;28;20124;-72
2022/12/31 12:55:51;;;;;;;29.98;18.95;;;22.80;63.10;;;;;;4937499;28;20038;-73
2022/12/31 12:58:47;;;;;;;30.85;19.20;;;22.70;63.10;;;;;;4953528;28;20100;-73
2022/12/31 13:01:24;;;;;;;32.28;18.88;;;22.80;63.00;;;;;;4930649;29;20052;-71
2022/12/31 13:03:53;;;;;;;32.78;18.95;;;22.80;63.00;;;;;;4915059;29;20469;-72
2022/12/31 13:06:57;;;;;;;32.58;19.70;;;22.80;62.90;;;;;;4930815;29;20067;-74
2022/12/31 13:10:02;;;;;;;31.05;19.73;;;22.80;62.90;;;;;;4892930;29;20064;-74
2022/12/31 13:12:55;;;;;;;32.42;19.58;;;22.70;62.70;;;;;;4894967;29;20822;-73